This is the latest recevied weather packets stored in our database for station/object W0VI. If no packets are shown the sender has not sent any weather packets the latest 10 day(s).
| Time | Temp. | Humidity | Pressure | Rain* | Wind** | Luminosity | Snow |
|---|---|---|---|---|---|---|---|
| 1787853590 | 26.11° C | 51% | 1018.9 hPa | 0 mm | - | 618 W/m² | - |
| 1787853284 | 25.56° C | 52% | 1018.7 hPa | 0 mm | - | 581 W/m² | - |
| 1787852979 | 25° C | 51% | 1019.3 hPa | 0 mm | - | 577 W/m² | - |
| 1787852674 | 25.56° C | 50% | 1019.1 hPa | 0 mm | - | 134 W/m² | - |
| 1787852373 | 25.56° C | 52% | 1019.2 hPa | 0 mm | - | 324 W/m² | - |
| 1787852073 | 25° C | 53% | 1019.2 hPa | 0 mm | - | 667 W/m² | - |
| 1787851772 | 25° C | 53% | 1019.1 hPa | 0 mm | - | 679 W/m² | - |
| 1787851467 | 25° C | 55% | 1019.3 hPa | 0 mm | - | 631 W/m² | - |
| 1787851162 | 25° C | 52% | 1019.2 hPa | 0 mm | - | 646 W/m² | - |
| 1787850857 | 25° C | 55% | 1019.2 hPa | 0 mm | - | 379 W/m² | - |
| 1787850553 | 25.56° C | 54% | 1019.1 hPa | 0 mm | - | 199 W/m² | - |
| 1787850248 | 25° C | 57% | 1019.2 hPa | 0 mm | - | 686 W/m² | - |
| 1787849943 | 25° C | 58% | 1019.3 hPa | 0 mm | - | 700 W/m² | - |
| 1787849637 | 23.89° C | 60% | 1019.4 hPa | 0 mm | - | 752 W/m² | - |
| 1787849336 | 23.89° C | 60% | 1019.5 hPa | 0 mm | - | 737 W/m² | - |
| 1787849030 | 23.89° C | 61% | 1019.3 hPa | 0 mm | - | 122 W/m² | - |
| 1787848724 | 24.44° C | 60% | 1019.2 hPa | 0 mm | - | 223 W/m² | - |
| 1787848420 | 23.33° C | 65% | 1019.2 hPa | 0 mm | - | 681 W/m² | - |
| 1787848119 | 23.89° C | 61% | 1019.6 hPa | 0 mm | - | 619 W/m² | - |
| 1787847814 | 24.44° C | 63% | 1019.3 hPa | 0 mm | - | 594 W/m² | - |
| 1787847509 | 24.44° C | 63% | 1019.4 hPa | 0 mm | - | 632 W/m² | - |
| 1787847205 | 24.44° C | 63% | 1019.3 hPa | 0 mm | - | 621 W/m² | - |
| 1787846902 | 24.44° C | 65% | 1019.4 hPa | 0 mm | - | 631 W/m² | - |
| 1787846600 | 24.44° C | 65% | 1019.3 hPa | 0 mm | - | 634 W/m² | - |
| 1787846295 | 23.33° C | 67% | 1019 hPa | 0 mm | - | 599 W/m² | - |
* Rain latest hour (hover to see other rain measurements)
** Current wind speed in m/s (hover to see current wind gust speed)